Tiempo atmosférico en la estación meteorológica de Cieza, Murcia (265 m.)



Fecha
DESCASC
Temp. máxima en grados centígrados (hora)
DESCASC
Temp. mínima en grados centígrados (hora)
DESCASC
Temp. media en grados centígrados
DESCASC
Racha de viento máxima en m/sg (hora)
DESCASC
Velocidad máxima media en intervalos de 10 minutos(hora)
DESCASC
Precipitaciones diarias en mm
DESCASC
Precipitaciones de 00:00 a 06:00 en mm
DESCASC
Precipitaciones de 06:00 a 12:00 en mm
DESCASC
Precipitaciones de 12:00 a 18:00 en mm
DESCASC
Precipitaciones de 18:00 a 24:00 en mm
DESCASC
11-12-2019 19.3 (14:50) 3.4 (09:00) 11.3 13.33 (18:50) 7.5 (15:00) 0 0 0 0 0
10-12-2019 19.1 (16:10) 6.7 (08:10) 12.9 7.22 (00:30) 3.89 (02:00) 0 0 0 0 0
09-12-2019 19.3 (16:10) 10.3 (05:40) 14.8 9.72 (07:30) 5.83 (20:00) 0 0 0 0 0
08-12-2019 18.1 (16:40) 3.9 (00:00) 11 6.94 (22:30) 4.72 (22:30) 0 0 0 0 0
07-12-2019 15.8 (17:00) 5.3 (00:00) 10.6 4.17 (06:40) 3.06 (07:40) 0 0 0 0 0
06-12-2019 14.5 (16:50) 9.3 (00:00) 11.9 4.72 (11:50) 3.06 (12:00) 0 0 0 0 0
05-12-2019 16.4 (16:30) 7.5 (00:00) 11.9 5.56 (19:10) 3.06 (19:10) 0.2 0.2 0 0 0
04-12-2019 12.1 (16:20) 7.4 (00:00) 9.8 10.83 (06:30) 6.67 (06:30) 1.3 0.1 0.4 0.8 0
03-12-2019 12.4 (13:00) 7.5 (00:00) 9.9 9.17 (17:30) 5 (20:50) 13.4 10.5 0 2 0.9
02-12-2019 13.9 (14:50) 9.2 (00:00) 11.5 6.94 (04:00) 4.17 (05:50) 6.7 0 3.6 0 3.1
01-12-2019 18.8 (15:40) 6.1 (00:00) 12.4 5.56 (19:50) 3.89 (01:00) 0 0 0 0 0
30-11-2019 20.3 (16:30) 8.1 (00:00) 14.2 5.56 (11:50) 4.17 (11:50) 0 0 0 0 0
29-11-2019 20.3 (14:30) 7.2 (00:00) 13.7 7.78 (14:40) 4.72 (14:40) 0 0 0 0 0
28-11-2019 19.6 (15:20) 7.3 (00:00) 13.5 3.89 (19:20) 2.78 (23:59) 0 0 0 0 0
27-11-2019 21.5 (15:00) 8.2 (00:00) 14.8 9.72 (16:40) 3.89 (16:50) 0 0 0 0 0
26-11-2019 21.4 (16:40) 8.2 (00:00) 14.8 5 (07:30) 3.33 (10:00) 0 0 0 0 0
25-11-2019 20.6 (14:50) 7.4 (00:00) 14 10.56 (16:50) 5.28 (15:00) 0 0 0 0 0
24-11-2019 14.4 (16:10) 6.3 (00:00) 10.3 10.83 (15:30) 7.5 (15:30) 0 0 0 0 0
23-11-2019 15.7 (15:00) 7.5 (00:00) 11.6 16.39 (11:40) 8.61 (11:20) 0.2 0.1 0.1 0 0
22-11-2019 12.6 (14:40) 5.9 (00:00) 9.3 9.17 (14:30) 5 (19:30) 10.1 0 0.3 2.7 7.1
21-11-2019 14 (16:40) 4.1 (00:00) 9 4.72 (08:50) 3.33 (09:00) 0.3 0 0 0 0.3
20-11-2019 15.5 (15:50) 1.3 (00:00) 8.4 5.28 (19:20) 3.33 (06:30) 0.1 0 0 0 0.1
19-11-2019 15.4 (16:20) 2.8 (00:00) 9.1 7.22 (05:30) 3.61 (05:30) 0 0 0 0 0
18-11-2019 14.1 (14:30) 5.1 (00:00) 9.6 10.83 (11:20) 4.72 (15:00) 4.2 4.2 0 0 0
17-11-2019 16.4 (16:00) 1.5 (00:00) 8.9 6.67 (14:30) 4.72 (14:50) 0.2 0 0 0 0.2
16-11-2019 13.8 (15:50) 1.5 (00:00) 7.7 11.11 (11:50) 3.89 (12:00) 0 0 0 0 0
15-11-2019 13.2 (15:40) 2.3 (00:00) 7.7 12.5 (00:40) 5.83 (02:20) 0 0 0 0 0

Gráficas

Temp. máximas Temp. mínimas Temp. medias Precipitaciones Rachas de viento máximas Velocidades máximas media en intervalos de 10 minutos

Datos horarios

Fecha y hora oficial Temperatura (ºC) Velocidad del viento (km/h) Dirección del viento Racha (km/h) Dirección de racha Precipitación (mm) Presión (hPa) Tendencia (hPa) Humedad (%)
2019-12-14 23:00:00 10.2 13 Oeste 18 Oeste 0 -- -- 68
2019-12-14 22:00:00 10.2 12 Oeste 15 Oeste 0 -- -- 68
2019-12-14 21:00:00 10.6 10 Noroeste 15 Oeste 0 -- -- 67
2019-12-14 20:00:00 11.5 10 Noroeste 15 Oeste 0 -- -- 65
2019-12-14 19:00:00 12.9 7 Oeste 14 Oeste 0 -- -- 61
2019-12-14 18:00:00 15.3 5 Noroeste 20 Noroeste 0 -- -- 55
2019-12-14 17:00:00 17.2 8 Noroeste 22 Noroeste 0 -- -- 51
2019-12-14 16:00:00 17.6 9 Noroeste 25 Noroeste 0 -- -- 51
2019-12-14 15:00:00 17.8 10 Noroeste 28 Norte 0 -- -- 52
2019-12-14 14:00:00 17.1 13 Noroeste 35 Norte 0 -- -- 53
2019-12-14 13:00:00 16.3 13 Noroeste 29 Norte 0 -- -- 57
2019-12-14 12:00:00 13.4 11 Oeste 19 Noroeste 0 -- -- 67
2019-12-14 11:00:00 11.9 10 Oeste 19 Noroeste 0 -- -- 71
2019-12-14 10:00:00 9.3 10 Noroeste 18 Noroeste 0 -- -- 76
2019-12-14 09:00:00 8.4 8 Oeste 18 Oeste 0 -- -- 78
2019-12-14 08:00:00 9.9 8 Oeste 17 Oeste 0 -- -- 74
2019-12-14 07:00:00 9 5 Oeste 13 Oeste 0 -- -- 76
2019-12-14 06:00:00 8.6 4 Oeste 10 Oeste 0 -- -- 75
2019-12-14 05:00:00 10.2 3 Noroeste 11 Oeste 0 -- -- 67
2019-12-14 04:00:00 11.9 6 Oeste 15 Oeste 0 -- -- 62
2019-12-14 03:00:00 13.2 4 Noroeste 23 Noroeste 0 -- -- 60
2019-12-14 02:00:00 14.4 11 Noroeste 32 Noroeste 0 -- -- 59
2019-12-14 01:00:00 14.7 16 Noroeste 32 Norte 0 -- -- 60
2019-12-14 00:00:00 14.8 9 Noroeste 26 Noroeste 0 -- -- 57
2019-12-13 23:00:00 15.4 14 Noroeste 32 Oeste 0 -- -- 57
2019-12-13 22:00:00 14.4 9 Oeste 24 Noroeste 0 -- -- 58
2019-12-13 21:00:00 15.9 18 Noroeste 38 Oeste 0 -- -- 55
2019-12-13 20:00:00 16.2 23 Noroeste 46 Noroeste 0 -- -- 55
2019-12-13 19:00:00 16 18 Noroeste 35 Noroeste 0 -- -- 55
2019-12-13 18:00:00 16.6 18 Noroeste 33 Noroeste 0 -- -- 54
2019-12-13 17:00:00 17.6 24 Oeste 44 Oeste 0 -- -- 50
2019-12-13 16:00:00 17.8 27 Oeste 54 Noroeste 0 -- -- 49
2019-12-13 15:00:00 17.7 33 Noroeste 54 Noroeste 0 -- -- 49
2019-12-13 14:00:00 17.8 27 Oeste 54 Noroeste 0 -- -- 49
2019-12-13 13:00:00 17.8 30 Noroeste 55 Oeste 0 -- -- 50
2019-12-13 12:00:00 17.7 27 Noroeste 45 Oeste 0 -- -- 51
2019-12-13 11:00:00 16.8 18 Oeste 31 Noroeste 0 -- -- 55
2019-12-13 10:00:00 15.8 19 Noroeste 37 Noroeste 0 -- -- 56
2019-12-13 09:00:00 15.7 17 Noroeste 37 Oeste 0 -- -- 58
2019-12-13 08:00:00 15.6 17 Noroeste 40 Noroeste 0 -- -- 58
2019-12-13 07:00:00 15.5 18 Noroeste 37 Oeste 0 -- -- 60
2019-12-13 06:00:00 15.4 20 Noroeste 39 Noroeste 0 -- -- 60
2019-12-13 05:00:00 14 19 Oeste 35 Oeste 0 -- -- 62
2019-12-13 04:00:00 13.9 19 Oeste 34 Oeste 0 -- -- 62
2019-12-13 03:00:00 13.5 17 Noroeste 35 Noroeste 0 -- -- 62
2019-12-13 02:00:00 13.8 16 Noroeste 33 Noroeste 0 -- -- 60
2019-12-13 01:00:00 12.7 10 Oeste 22 Noroeste 0 -- -- 61
2019-12-13 00:00:00 12.1 11 Oeste 22 Noroeste 0 -- -- 61
2019-12-12 23:00:00 12 9 Oeste 18 Noroeste 0 -- -- 60
2019-12-12 22:00:00 11.3 10 Noroeste 22 Noroeste 0 -- -- 59
2019-12-12 21:00:00 12 15 Noroeste 34 Oeste 0 -- -- 55
2019-12-12 20:00:00 11.8 13 Noroeste 28 Noroeste 0 -- -- 55
2019-12-12 19:00:00 11.8 16 Noroeste 38 Oeste 0 -- -- 54
2019-12-12 18:00:00 12 21 Noroeste 44 Noroeste 0 -- -- 53
2019-12-12 17:00:00 12.7 23 Noroeste 42 Oeste 0 -- -- 51
2019-12-12 16:00:00 12.6 19 Noroeste 42 Oeste 0 -- -- 52
2019-12-12 15:00:00 12.9 22 Noroeste 44 Noroeste 0 -- -- 50
2019-12-12 14:00:00 13.4 18 Noroeste 42 Oeste 0 -- -- 49
2019-12-12 13:00:00 12.6 11 Oeste 19 Oeste 0 -- -- 54
2019-12-12 12:00:00 10.2 9 Oeste 16 Oeste 0 -- -- 61
2019-12-12 11:00:00 9.3 5 Noroeste 21 Oeste 0 -- -- 65
2019-12-12 10:00:00 7.1 6 Oeste 14 Oeste 0 -- -- 72
2019-12-12 09:00:00 5.2 5 Oeste 10 Noroeste 0 -- -- 74
2019-12-12 08:00:00 6.1 5 Oeste 14 Oeste 0 -- -- 72
2019-12-12 07:00:00 5.8 6 Oeste 14 Oeste 0 -- -- 71
2019-12-12 06:00:00 6.7 6 Oeste 13 Oeste 0 -- -- 68
2019-12-12 05:00:00 5.8 3 Oeste 9 Oeste 0 -- -- 71
2019-12-12 04:00:00 6.4 6 Sudoeste 16 Norte 0 -- -- 68
2019-12-12 03:00:00 8.2 7 Noroeste 19 Noroeste 0 -- -- 62
2019-12-12 02:00:00 7.7 10 Noroeste 18 Norte 0 -- -- 65
2019-12-12 01:00:00 8.8 7 Noroeste 21 Noroeste 0 -- -- 61
2019-12-12 00:00:00 9.7 9 Noroeste 19 Norte 0 -- -- 60
2019-12-11 23:00:00 9.6 7 Norte 18 Noroeste 0 -- -- 61
2019-12-11 22:00:00 10.5 7 Noroeste 21 Norte 0 -- -- 58
2019-12-11 21:00:00 11 9 Noroeste 31 Norte 0 -- -- 57
2019-12-11 20:00:00 11.8 17 Noroeste 42 Oeste 0 -- -- 55
2019-12-11 19:00:00 12.9 23 Noroeste 48 Noroeste 0 -- -- 55
2019-12-11 18:00:00 14.7 15 Noroeste 36 Noroeste 0 -- -- 51
2019-12-11 17:00:00 16.3 15 Noroeste 37 Oeste 0 -- -- 41
2019-12-11 16:00:00 16.2 21 Oeste 45 Oeste 0 -- -- 36
2019-12-11 15:00:00 18.7 27 Oeste 42 Noroeste 0 -- -- 35
2019-12-11 14:00:00 16.4 9 Oeste 16 Noroeste 0 -- -- 40
2019-12-11 13:00:00 13.1 7 Oeste 17 Oeste 0 -- -- 50
2019-12-11 12:00:00 9.2 11 Oeste 17 Oeste 0 -- -- 58
2019-12-11 11:00:00 6 9 Oeste 17 Oeste 0 -- -- 66
2019-12-11 10:00:00 3.5 13 Oeste 17 Oeste 0 -- -- 72
2019-12-11 09:00:00 3.4 12 Oeste 15 Oeste 0 -- -- 71
2019-12-11 08:00:00 4.3 11 Oeste 18 Oeste 0 -- -- 67
2019-12-11 07:00:00 4.4 12 Oeste 18 Oeste 0 -- -- 68
2019-12-11 06:00:00 5.2 11 Oeste 17 Oeste 0 -- -- 65
2019-12-11 05:00:00 5.2 13 Oeste 21 Oeste 0 -- -- 67
2019-12-11 04:00:00 5.5 15 Oeste 21 Oeste 0 -- -- 68
2019-12-11 03:00:00 5.8 13 Oeste 20 Oeste 0 -- -- 70
2019-12-11 02:00:00 6 14 Oeste 17 Noroeste 0 -- -- 71
2019-12-11 01:00:00 7.5 11 Oeste 19 Oeste 0 -- -- 63
2019-12-11 00:00:00 7.3 12 Oeste 18 Oeste 0 -- -- 68
2019-12-10 23:00:00 8.1 12 Oeste 18 Oeste 0 -- -- 61
2019-12-10 22:00:00 10.3 10 Oeste 17 Oeste 0 -- -- 49
2019-12-10 21:00:00 10.5 5 Oeste 13 Oeste 0 -- -- 46
2019-12-10 20:00:00 12.7 8 Oeste 15 Norte 0 -- -- 41
2019-12-10 19:00:00 13 4 Oeste 11 Oeste 0 -- -- 42
2019-12-10 18:00:00 15.3 5 Oeste 14 Noroeste 0 -- -- 37
2019-12-10 17:00:00 18.8 9 Oeste 15 Noroeste 0 -- -- 33
2019-12-10 16:00:00 18.8 7 Noroeste 16 Noroeste 0 -- -- 31
2019-12-10 15:00:00 17.7 9 Noroeste 21 Oeste 0 -- -- 34
2019-12-10 14:00:00 16.5 11 Oeste 20 Noroeste 0 -- -- 39
2019-12-10 13:00:00 15.3 8 Oeste 20 Oeste 0 -- -- 42
2019-12-10 12:00:00 13.5 9 Oeste 22 Oeste 0 -- -- 47
2019-12-10 11:00:00 10.7 10 Oeste 17 Noroeste 0 -- -- 53
2019-12-10 10:00:00 9.9 8 Noroeste 21 Norte 0 -- -- 52
2019-12-10 09:00:00 8.4 5 Norte 17 Noroeste 0 -- -- 55
2019-12-10 08:00:00 7.3 0 Calma 15 Oeste 0 -- -- 56
2019-12-10 07:00:00 9.1 6 Oeste 25 Noroeste 0 -- -- 53
2019-12-10 06:00:00 8.6 4 Oeste 17 Noroeste 0 -- -- 56
2019-12-10 05:00:00 9.7 10 Noroeste 22 Oeste 0 -- -- 55
2019-12-10 04:00:00 9.9 5 Noroeste 20 Oeste 0 -- -- 57
2019-12-10 03:00:00 10.7 11 Oeste 20 Oeste 0 -- -- 56
2019-12-10 02:00:00 11.8 14 Oeste 24 Oeste 0 -- -- 56
2019-12-10 01:00:00 12.3 12 Oeste 26 Noroeste 0 -- -- 56
2019-12-10 00:00:00 12.4 10 Noroeste 24 Noroeste 0 -- -- 52
2019-12-09 23:00:00 12.2 11 Noroeste 21 Oeste 0 -- -- 49
2019-12-09 22:00:00 12.5 8 Noroeste 21 Noroeste 0 -- -- 45
2019-12-09 21:00:00 13.9 11 Noroeste 29 Norte 0 -- -- 41
2019-12-09 20:00:00 15.3 21 Norte 32 Norte 0 -- -- 39
2019-12-09 19:00:00 16.1 9 Norte 21 Norte 0 -- -- 34
2019-12-09 18:00:00 17.2 9 Noroeste 21 Noroeste 0 -- -- 33
2019-12-09 17:00:00 18.5 8 Noroeste 16 Noroeste 0 -- -- 39
2019-12-09 16:00:00 18.9 6 Noroeste 21 Noroeste 0 -- -- 37
2019-12-09 15:00:00 17.8 8 Noroeste 24 Norte 0 -- -- 40
2019-12-09 14:00:00 16.8 11 Noroeste 24 Norte 0 -- -- 45
2019-12-09 13:00:00 16.3 8 Noroeste 23 Noroeste 0 -- -- 52
2019-12-09 12:00:00 14.3 9 Noroeste 26 Norte 0 -- -- 60
2019-12-09 11:00:00 13.8 8 Noroeste 19 Norte 0 -- -- 63
2019-12-09 10:00:00 12 4 Oeste 18 Noroeste 0 -- -- 70
2019-12-09 09:00:00 11.9 9 Noroeste 25 Noroeste 0 -- -- 71
2019-12-09 08:00:00 12.2 6 Noroeste 35 Oeste 0 -- -- 71
2019-12-09 07:00:00 12.6 11 Noroeste 23 Noroeste 0 -- -- 72
2019-12-09 06:00:00 10.6 4 Oeste 9 Oeste 0 -- -- 78
2019-12-09 05:00:00 11.1 7 Sudoeste 12 Sudoeste 0 -- -- 76
2019-12-09 04:00:00 11.7 4 Sur 21 Oeste 0 -- -- 73
2019-12-09 03:00:00 12.4 6 Noroeste 33 Oeste 0 -- -- 71
2019-12-09 02:00:00 12 15 Oeste 21 Oeste 0 -- -- 73
2019-12-09 01:00:00 12 5 Noroeste 16 Noroeste 0 -- -- 73
2019-12-09 00:00:00 11.9 5 Noroeste 19 Noroeste 0 -- -- 71
2019-12-08 23:00:00 12 8 Oeste 25 Oeste 0 -- -- 71
2019-12-08 22:00:00 11.9 9 Oeste 17 Noroeste 0 -- -- 71
2019-12-08 21:00:00 12 10 Oeste 18 Oeste 0 -- -- 70
2019-12-08 20:00:00 11.5 7 Oeste 13 Oeste 0 -- -- 71
2019-12-08 19:00:00 12.1 0 Calma 7 Oeste 0 -- -- 61
2019-12-08 18:00:00 15.9 5 Oeste 11 Oeste 0 -- -- 47
2019-12-08 17:00:00 17.7 8 Oeste 13 Oeste 0 -- -- 44
2019-12-08 16:00:00 17.8 8 Oeste 14 Sudoeste 0 -- -- 44
2019-12-08 15:00:00 16.6 6 Sudoeste 13 Oeste 0 -- -- 49
2019-12-08 14:00:00 14.5 8 Oeste 18 Oeste 0 -- -- 55
2019-12-08 13:00:00 12.7 12 Oeste 18 Noroeste 0 -- -- 62
2019-12-08 12:00:00 10.1 10 Oeste 15 Oeste 0 -- -- 73
2019-12-08 11:00:00 7.4 8 Oeste 14 Oeste 0 -- -- 85
2019-12-08 10:00:00 4.8 9 Oeste 11 Oeste 0 -- -- 91
2019-12-08 09:00:00 3.9 4 Noroeste 12 Oeste 0 -- -- 93
2019-12-08 08:00:00 4.3 8 Oeste 12 Oeste 0 -- -- 93
2019-12-08 07:00:00 4.7 7 Oeste 15 Oeste 0 -- -- 93
2019-12-08 06:00:00 4.5 9 Oeste 12 Oeste 0 -- -- 94
2019-12-08 05:00:00 5.4 7 Oeste 11 Oeste 0 -- -- 93
2019-12-08 04:00:00 5.6 9 Oeste 12 Oeste 0 -- -- 93
2019-12-08 03:00:00 5.9 8 Oeste 10 Oeste 0 -- -- 94
2019-12-08 02:00:00 6.5 8 Oeste 10 Oeste 0 -- -- 93
2019-12-08 01:00:00 6.7 8 Oeste 10 Oeste 0 -- -- 93
2019-12-08 00:00:00 7.3 5 Oeste 7 Oeste 0 -- -- 91
2019-12-07 23:00:00 6.4 3 Oeste 5 Oeste 0 -- -- 91
2019-12-07 22:00:00 7 0 Calma 4 Oeste 0 -- -- 87
2019-12-07 21:00:00 8.3 0 Calma 6 Este 0 -- -- 84
2019-12-07 20:00:00 9.5 4 Este 6 Este 0 -- -- 81
2019-12-07 19:00:00 11.1 2 Oeste 6 Oeste 0 -- -- 67
2019-12-07 18:00:00 14.2 3 Oeste 5 Oeste 0 -- -- 57
2019-12-07 17:00:00 15.8 3 Oeste 12 Oeste 0 -- -- 56
2019-12-07 16:00:00 15.2 8 Oeste 13 Oeste 0 -- -- 58
2019-12-07 15:00:00 14.5 8 Oeste 12 Oeste 0 -- -- 62
2019-12-07 14:00:00 13.1 6 Oeste 10 Oeste 0 -- -- 68
2019-12-07 13:00:00 10 7 Oeste 13 Oeste 0 -- -- 82
2019-12-07 12:00:00 8.3 9 Oeste 12 Oeste 0 -- -- 88
2019-12-07 11:00:00 6.9 6 Oeste 14 Oeste 0 -- -- 93
2019-12-07 10:00:00 5.7 11 Oeste 14 Oeste 0 -- -- 94
2019-12-07 09:00:00 5.8 10 Oeste 12 Noroeste 0 -- -- 94
2019-12-07 08:00:00 5.7 10 Oeste 14 Oeste 0 -- -- 95
2019-12-07 07:00:00 6 10 Oeste 15 Oeste 0 -- -- 94
2019-12-07 06:00:00 6.2 8 Oeste 11 Oeste 0 -- -- 95
2019-12-07 05:00:00 7.2 8 Oeste 11 Oeste 0 -- -- 92
2019-12-07 04:00:00 7.5 8 Oeste 11 Oeste 0 -- -- 92
2019-12-07 03:00:00 8.1 7 Oeste 9 Oeste 0 -- -- 93
2019-12-07 02:00:00 8.8 6 Oeste 8 Noroeste 0 -- -- 90
2019-12-07 01:00:00 8.9 0 Calma 6 Norte 0 -- -- 88
2019-12-07 00:00:00 9.8 2 Oeste 7 Oeste 0 -- -- 84
2019-12-06 23:00:00 11.2 0 Calma 6 Norte 0 -- -- 83
2019-12-06 22:00:00 11.1 0 Calma 4 Nordeste 0 -- -- 82
2019-12-06 21:00:00 11.1 0 Calma 3 Nordeste 0 -- -- 82
2019-12-06 20:00:00 11.7 0 Calma -- -- 0 -- -- 78
2019-12-06 19:00:00 11.5 0 Calma -- -- 0 -- -- 77
2019-12-06 18:00:00 13.4 0 Calma 8 Oeste 0 -- -- 68
2019-12-06 17:00:00 14 5 Oeste 12 Oeste 0 -- -- 65
2019-12-06 16:00:00 14.2 8 Oeste 15 Oeste 0 -- -- 66
2019-12-06 15:00:00 13.9 10 Oeste 16 Oeste 0 -- -- 68
2019-12-06 14:00:00 13.4 10 Oeste 15 Oeste 0 -- -- 69
2019-12-06 13:00:00 12.8 8 Oeste 14 Oeste 0 -- -- 72
2019-12-06 12:00:00 11.5 11 Oeste 17 Oeste 0 -- -- 80
2019-12-06 11:00:00 10.4 4 Oeste 15 Noroeste 0 -- -- 87
2019-12-06 10:00:00 10.5 6 Noroeste 15 Oeste 0 -- -- 83
2019-12-06 09:00:00 9.7 3 Noroeste 13 Oeste 0 -- -- 84
2019-12-06 08:00:00 9.9 4 Noroeste 12 Oeste 0 -- -- 84
2019-12-06 07:00:00 9.9 8 Oeste 13 Oeste 0 -- -- 88
2019-12-06 06:00:00 9.8 8 Oeste 11 Oeste 0 -- -- 89
2019-12-06 05:00:00 10.2 3 Noroeste 14 Oeste 0 -- -- 87
2019-12-06 04:00:00 10.1 4 Oeste 8 Oeste 0 -- -- 87
2019-12-06 03:00:00 10.1 4 Oeste 9 Oeste 0 -- -- 89
2019-12-06 02:00:00 9.8 7 Oeste 11 Oeste 0 -- -- 89
2019-12-06 01:00:00 10.2 7 Oeste 11 Oeste 0 -- -- 89
2019-12-06 00:00:00 10.5 0 Calma 5 Oeste 0 -- -- 88
2019-12-05 23:00:00 10.6 0 Calma 4 Este 0 -- -- 88
2019-12-05 22:00:00 11.1 0 Calma 4 Nordeste 0 -- -- 83
2019-12-05 21:00:00 11.4 0 Calma 14 Sudeste 0 -- -- 85
2019-12-05 20:00:00 12 8 Sudeste 20 Sudeste 0 -- -- 85
2019-12-05 19:00:00 13 10 Sudeste 17 Sudeste 0 -- -- 77
2019-12-05 18:00:00 14 4 Sur 9 Sudoeste 0 -- -- 66
2019-12-05 17:00:00 15.2 0 Calma 4 Sudoeste 0 -- -- 58
2019-12-05 16:00:00 16.1 0 Calma 9 Sudeste 0 -- -- 57
2019-12-05 15:00:00 15.6 4 Sur 9 Sudeste 0 -- -- 58
2019-12-05 14:00:00 14.4 0 Calma 7 Oeste 0 -- -- 66
2019-12-05 13:00:00 12.8 4 Noroeste 8 Noroeste 0 -- -- 72
2019-12-05 12:00:00 11.5 0 Calma 8 Oeste 0 -- -- 73
2019-12-05 11:00:00 10.2 0 Calma 8 Norte 0 -- -- 79
2019-12-05 10:00:00 9.4 0 Calma 12 Norte 0 -- -- 83
2019-12-05 09:00:00 7.9 0 Calma 5 Nordeste 0 -- -- 88
2019-12-05 08:00:00 8.3 0 Calma -- -- 0 -- -- 88
2019-12-05 07:00:00 8.6 0 Calma 9 Oeste 0 -- -- 88
2019-12-05 06:00:00 9.2 4 Oeste 12 Oeste 0 -- -- 87
2019-12-05 05:00:00 9.5 9 Oeste 13 Oeste 0.1 -- -- 87
2019-12-05 04:00:00 9.3 8 Noroeste 12 Oeste 0.1 -- -- 87
2019-12-05 03:00:00 9.7 6 Noroeste 11 Noroeste 0 -- -- 83
2019-12-05 02:00:00 10 0 Calma 8 Noroeste 0 -- -- 79
2019-12-05 01:00:00 9.7 0 Calma 7 Noroeste 0 -- -- 81
2019-12-05 00:00:00 9.7 3 Noroeste 14 Oeste 0 -- -- 81
2019-12-04 23:00:00 10.4 9 Oeste 13 Oeste 0 -- -- 77
2019-12-04 22:00:00 10.2 5 Oeste 10 Oeste 0 -- -- 81
2019-12-04 21:00:00 10.1 3 Oeste 8 Oeste 0 -- -- 83
2019-12-04 20:00:00 10 2 Noroeste 12 Noroeste 0 -- -- 84
2019-12-04 19:00:00 10.2 10 Oeste 14 Oeste 0 -- -- 83
2019-12-04 18:00:00 10.5 4 Noroeste 14 Oeste 0 -- -- 82
2019-12-04 17:00:00 11.3 11 Oeste 19 Oeste 0 -- -- 76
2019-12-04 16:00:00 11.4 7 Noroeste 17 Noroeste 0 -- -- 78
2019-12-04 15:00:00 10.3 12 Oeste 20 Noroeste 0.4 -- -- 88
2019-12-04 14:00:00 10 13 Oeste 22 Oeste 0.1 -- -- 85
2019-12-04 13:00:00 10.1 15 Oeste 23 Noroeste 0.3 -- -- 82
2019-12-04 12:00:00 9.7 12 Oeste 28 Noroeste 0.4 -- -- 82
2019-12-04 11:00:00 10.4 15 Noroeste 33 Noroeste 0 -- -- 72
2019-12-04 10:00:00 10.6 18 Noroeste 33 Noroeste 0 -- -- 68
2019-12-04 09:00:00 9.8 17 Noroeste 32 Oeste 0 -- -- 73
2019-12-04 08:00:00 10.1 22 Oeste 36 Oeste 0 -- -- 72
2019-12-04 07:00:00 10 22 Oeste 39 Oeste 0 -- -- 72
2019-12-04 06:00:00 9.4 19 Noroeste 36 Oeste 0 -- -- 77
2019-12-04 05:00:00 9.1 16 Noroeste 37 Oeste 0 -- -- 78
2019-12-04 04:00:00 8.3 15 Noroeste 26 Noroeste 0 -- -- 85
2019-12-04 03:00:00 7.8 13 Oeste 25 Noroeste 0.1 -- -- 88
2019-12-04 02:00:00 7.7 13 Noroeste 23 Noroeste 0 -- -- 88
2019-12-04 01:00:00 7.5 11 Noroeste 25 Oeste 0 -- -- 89
2019-12-04 00:00:00 7.6 13 Oeste 27 Oeste 0 -- -- 88
2019-12-03 23:00:00 7.7 14 Oeste 23 Oeste 0.2 -- -- 88
2019-12-03 22:00:00 9.2 12 Norte 26 Norte 0 -- -- 72
2019-12-03 21:00:00 9.2 18 Norte 32 Norte 0 -- -- 73
2019-12-03 20:00:00 9.1 7 Norte 19 Norte 0.1 -- -- 77
2019-12-03 19:00:00 9.1 4 Norte 15 Nordeste 0.6 -- -- 81
2019-12-03 18:00:00 9.5 6 Norte 33 Nordeste 1 -- -- 82
2019-12-03 17:00:00 10.1 4 Noroeste 13 Norte 0.2 -- -- 81
2019-12-03 16:00:00 10.4 0 Calma 15 Nordeste 0.8 -- -- 78
2019-12-03 15:00:00 11.4 8 Nordeste 18 Nordeste 0 -- -- 68
2019-12-03 14:00:00 12 4 Este 17 Este 0 -- -- 67
2019-12-03 13:00:00 12.4 6 Nordeste 24 Nordeste 0 -- -- 65
2019-12-03 12:00:00 12 9 Nordeste 27 Norte 0 -- -- 62
2019-12-03 11:00:00 11.8 12 Nordeste 22 Nordeste 0 -- -- 65
2019-12-03 10:00:00 11 4 Nordeste 12 Nordeste 0 -- -- 67
2019-12-03 09:00:00 11 5 Nordeste 14 Este 0 -- -- 68
2019-12-03 08:00:00 10.3 6 Norte 15 Norte 0 -- -- 76
2019-12-03 07:00:00 9.7 5 Oeste 15 Oeste 0 -- -- 85
2019-12-03 06:00:00 9.3 9 Oeste 17 Oeste 0 -- -- 90
2019-12-03 05:00:00 9.2 9 Oeste 15 Oeste 0.1 -- -- 93
2019-12-03 04:00:00 9.7 0 Calma 25 Nordeste 1.1 -- -- 85
2019-12-03 03:00:00 10.3 10 Norte 19 Norte 5.9 -- -- 89
2019-12-03 02:00:00 10.5 0 Calma 8 Este 3.1 -- -- 92
2019-12-03 01:00:00 10.7 0 Calma 14 Norte 0.3 -- -- 89
2019-12-03 00:00:00 10.6 5 Nordeste 20 Nordeste 0.7 -- -- 90
2019-12-02 23:00:00 10.9 9 Norte 17 Nordeste 0.8 -- -- 89
2019-12-02 22:00:00 11 10 Nordeste 23 Nordeste 0.4 -- -- 88
2019-12-02 21:00:00 11.1 9 Nordeste 17 Nordeste 0.7 -- -- 88
2019-12-02 20:00:00 11.4 7 Nordeste 14 Nordeste 0.4 -- -- 85
2019-12-02 19:00:00 11.7 0 Calma 11 Sudeste 0.1 -- -- 87
2019-12-02 18:00:00 12.7 5 Este 17 Nordeste 0 -- -- 70
2019-12-02 17:00:00 12.9 8 Nordeste 23 Norte 0 -- -- 68
2019-12-02 16:00:00 13 8 Nordeste 24 Nordeste 0 -- -- 67
2019-12-02 15:00:00 13.7 9 Nordeste 21 Este 0 -- -- 65
2019-12-02 14:00:00 13.5 10 Nordeste 25 Nordeste 0 -- -- 66
2019-12-02 13:00:00 12.4 9 Nordeste 22 Nordeste 0 -- -- 71
2019-12-02 12:00:00 11 11 Nordeste 20 Nordeste 0.1 -- -- 81
2019-12-02 11:00:00 10.2 7 Norte 13 Norte 0.5 -- -- 88
2019-12-02 10:00:00 9.9 4 Noroeste 12 Oeste 0.1 -- -- 93
2019-12-02 09:00:00 9.7 5 Oeste 13 Oeste 0 -- -- 92
2019-12-02 08:00:00 9.5 4 Noroeste 17 Oeste 0 -- -- 95
2019-12-02 07:00:00 9.4 11 Oeste 21 Oeste 2.9 -- -- 94
2019-12-02 06:00:00 9.3 14 Oeste 21 Oeste 0 -- -- 93
2019-12-02 05:00:00 9.3 4 Noroeste 21 Oeste 0 -- -- 92
2019-12-02 04:00:00 9.7 14 Oeste 25 Oeste 0 -- -- 87
2019-12-02 03:00:00 11 3 Nordeste 10 Oeste 0 -- -- 79
2019-12-02 02:00:00 10.5 9 Oeste 17 Oeste 0 -- -- 83
2019-12-02 01:00:00 10.3 12 Oeste 18 Oeste 0 -- -- 83
2019-12-02 00:00:00 11.6 0 Calma 6 Norte 0 -- -- 82
2019-12-01 23:00:00 11.4 0 Calma 8 Nordeste 0 -- -- 83
2019-12-01 22:00:00 11.3 0 Calma 9 Sudeste 0 -- -- 82
2019-12-01 21:00:00 11.6 2 Este 13 Sudeste 0 -- -- 75
2019-12-01 20:00:00 12.8 10 Sudeste 20 Sudeste 0 -- -- 78
2019-12-01 19:00:00 12.6 0 Calma 5 Nordeste 0 -- -- 56
2019-12-01 18:00:00 16.6 0 Calma 7 Nordeste 0 -- -- 44
2019-12-01 17:00:00 18.1 4 Noroeste 10 Norte 0 -- -- 39
2019-12-01 16:00:00 18.3 4 Noroeste 13 Noroeste 0 -- -- 40
2019-12-01 15:00:00 18.1 3 Noroeste 13 Norte 0 -- -- 44
2019-12-01 14:00:00 17 5 Norte 16 Oeste 0 -- -- 47
2019-12-01 13:00:00 15.1 6 Oeste 17 Oeste 0 -- -- 56
2019-12-01 12:00:00 13.5 9 Oeste 15 Oeste 0 -- -- 67
2019-12-01 11:00:00 10.6 10 Oeste 13 Oeste 0 -- -- 78
2019-12-01 10:00:00 8.4 9 Oeste 15 Oeste 0 -- -- 87
2019-12-01 09:00:00 6.8 3 Oeste 16 Oeste 0 -- -- 92
2019-12-01 08:00:00 6.6 8 Oeste 12 Oeste 0 -- -- 93
2019-12-01 07:00:00 6.6 0 Calma 10 Oeste 0 -- -- 94
2019-12-01 06:00:00 6.9 8 Oeste 14 Oeste 0 -- -- 95
2019-12-01 05:00:00 7.6 5 Oeste 12 Oeste 0 -- -- 94
2019-12-01 04:00:00 8.3 9 Oeste 13 Oeste 0 -- -- 93
2019-12-01 03:00:00 7.7 10 Oeste 13 Oeste 0 -- -- 94
2019-12-01 02:00:00 8.7 6 Oeste 15 Oeste 0 -- -- 93
2019-12-01 01:00:00 9.5 14 Oeste 18 Oeste 0 -- -- 90
2019-12-01 00:00:00 10.8 10 Oeste 13 Oeste 0 -- -- 85
2019-11-30 23:00:00 11.3 10 Oeste 14 Oeste 0 -- -- 85
2019-11-30 22:00:00 11.7 6 Oeste 10 Oeste 0 -- -- 83
2019-11-30 21:00:00 12.4 3 Oeste 9 Oeste 0 -- -- 81
2019-11-30 20:00:00 13.7 3 Este 14 Sudeste 0 -- -- 71
2019-11-30 19:00:00 16.2 6 Sudeste 16 Sudeste 0 -- -- 61
2019-11-30 18:00:00 17.8 8 Sudeste 15 Este 0 -- -- 55
2019-11-30 17:00:00 19.7 3 Sudeste 8 Este 0 -- -- 51
2019-11-30 16:00:00 19.8 0 Calma 6 Oeste 0 -- -- 51
2019-11-30 15:00:00 19 4 Oeste 10 Oeste 0 -- -- 54
2019-11-30 14:00:00 17.5 6 Oeste 14 Oeste 0 -- -- 58
2019-11-30 13:00:00 15.8 9 Oeste 17 Oeste 0 -- -- 63
2019-11-30 12:00:00 13.9 13 Oeste 20 Oeste 0 -- -- 71
2019-11-30 11:00:00 11.4 13 Oeste 19 Oeste 0 -- -- 81
2019-11-30 10:00:00 9.5 11 Oeste 17 Oeste 0 -- -- 88
2019-11-30 09:00:00 8.4 10 Oeste 16 Oeste 0 -- -- 93
2019-11-30 08:00:00 8.3 12 Oeste 15 Oeste 0 -- -- 93
2019-11-30 07:00:00 8.9 10 Oeste 15 Oeste 0 -- -- 90
2019-11-30 06:00:00 9.7 11 Oeste 14 Oeste 0 -- -- 88
2019-11-30 05:00:00 10.2 9 Oeste 15 Oeste 0 -- -- 87
2019-11-30 04:00:00 10.3 12 Oeste 17 Oeste 0 -- -- 86
2019-11-30 03:00:00 10.7 12 Oeste 17 Oeste 0 -- -- 85
2019-11-30 02:00:00 11.1 11 Oeste 15 Oeste 0 -- -- 83
2019-11-30 01:00:00 11.4 10 Oeste 13 Oeste 0 -- -- 83
2019-11-30 00:00:00 12.3 9 Oeste 13 Oeste 0 -- -- 78
2019-11-29 23:00:00 12.8 8 Oeste 10 Oeste 0 -- -- 78
2019-11-29 22:00:00 13 8 Oeste 14 Oeste 0 -- -- 77
2019-11-29 21:00:00 14.2 10 Oeste 14 Oeste 0 -- -- 71
2019-11-29 20:00:00 15.4 4 Oeste 13 Nordeste 0 -- -- 65
2019-11-29 19:00:00 16.9 6 Norte 14 Norte 0 -- -- 59
2019-11-29 18:00:00 18.2 5 Norte 17 Norte 0 -- -- 55
2019-11-29 17:00:00 18.9 9 Norte 21 Norte 0 -- -- 52
2019-11-29 16:00:00 19.1 13 Norte 26 Norte 0 -- -- 51
2019-11-29 15:00:00 19.6 14 Norte 28 Norte 0 -- -- 50
2019-11-29 14:00:00 19.4 7 Noroeste 27 Norte 0 -- -- 51
2019-11-29 13:00:00 20.2 9 Noroeste 26 Noroeste 0 -- -- 50
2019-11-29 12:00:00 18 7 Noroeste 24 Oeste 0 -- -- 53
2019-11-29 11:00:00 16 5 Noroeste 18 Noroeste 0 -- -- 61
2019-11-29 10:00:00 12.7 13 Oeste 21 Noroeste 0 -- -- 69
2019-11-29 09:00:00 9.5 11 Oeste 18 Noroeste 0 -- -- 78
2019-11-29 08:00:00 9.1 11 Oeste 19 Oeste 0 -- -- 77
2019-11-29 07:00:00 9 9 Oeste 15 Oeste 0 -- -- 78
2019-11-29 06:00:00 8.5 7 Oeste 11 Oeste 0 -- -- 82
2019-11-29 05:00:00 8.1 7 Oeste 12 Oeste 0 -- -- 84
2019-11-29 04:00:00 7.8 6 Oeste 9 Oeste 0 -- -- 87
2019-11-29 03:00:00 7.7 0 Calma 10 Oeste 0 -- -- 85
2019-11-29 02:00:00 8.8 5 Oeste 10 Oeste 0 -- -- 82
2019-11-29 01:00:00 9.3 6 Oeste 13 Oeste 0 -- -- 79
2019-11-29 00:00:00 9.5 10 Oeste 13 Oeste 0 -- -- 80
2019-11-28 23:00:00 10.2 9 Oeste 12 Oeste 0 -- -- 78
2019-11-28 22:00:00 11.4 8 Oeste 14 Oeste 0 -- -- 74
2019-11-28 21:00:00 11.7 7 Oeste 10 Oeste 0 -- -- 73
2019-11-28 20:00:00 14.5 6 Norte 14 Nordeste 0 -- -- 61
2019-11-28 19:00:00 15 7 Nordeste 12 Nordeste 0 -- -- 59
2019-11-28 18:00:00 16.2 5 Sudoeste 7 Sudoeste 0 -- -- 54
2019-11-28 17:00:00 18.5 3 Sudoeste 8 Oeste 0 -- -- 49
2019-11-28 16:00:00 19.2 3 Oeste 9 Oeste 0 -- -- 46
2019-11-28 15:00:00 18.9 5 Oeste 13 Oeste 0 -- -- 47
2019-11-28 14:00:00 18.3 4 Noroeste 13 Noroeste 0 -- -- 49
2019-11-28 13:00:00 17.1 6 Oeste 12 Oeste 0 -- -- 53
2019-11-28 12:00:00 15.1 5 Oeste 12 Oeste 0 -- -- 58
2019-11-28 11:00:00 12.7 5 Oeste 10 Oeste 0 -- -- 66
2019-11-28 10:00:00 11.1 3 Oeste 6 Oeste 0 -- -- 68
2019-11-28 09:00:00 8.3 3 Oeste 10 Oeste 0 -- -- 74
2019-11-28 08:00:00 9.3 7 Oeste 11 Oeste 0 -- -- 73
2019-11-28 07:00:00 9.4 0 Calma 12 Oeste 0 -- -- 71
2019-11-28 06:00:00 9.4 4 Oeste 13 Oeste 0 -- -- 72
2019-11-28 05:00:00 8.9 0 Calma 9 Oeste 0 -- -- 74
2019-11-28 04:00:00 7.5 0 Calma 9 Sudoeste 0 -- -- 78
2019-11-28 03:00:00 8.5 4 Oeste 10 Oeste 0 -- -- 76
2019-11-28 02:00:00 9.2 5 Oeste 10 Oeste 0 -- -- 73
2019-11-28 01:00:00 10.4 6 Oeste 9 Oeste 0 -- -- 70
2019-11-28 00:00:00 10 3 Oeste 10 Oeste 0 -- -- 70
2019-11-27 23:00:00 10.9 7 Oeste 10 Oeste 0 -- -- 66
2019-11-27 22:00:00 9.6 0 Calma 10 Oeste 0 -- -- 67
2019-11-27 21:00:00 12.6 3 Sudoeste 32 Noroeste 0 -- -- 52
2019-11-27 20:00:00 14.7 6 Oeste 19 Oeste 0 -- -- 46
2019-11-27 19:00:00 16.2 6 Noroeste 35 Oeste 0 -- -- 42
2019-11-27 18:00:00 17.5 7 Noroeste 30 Oeste 0 -- -- 40
2019-11-27 17:00:00 19.2 12 Noroeste 35 Oeste 0 -- -- 37
2019-11-27 16:00:00 20.1 9 Noroeste 27 Oeste 0 -- -- 37
2019-11-27 15:00:00 20.9 12 Noroeste 28 Noroeste 0 -- -- 37
2019-11-27 14:00:00 20.7 12 Oeste 30 Noroeste 0 -- -- 41
2019-11-27 06:00:00 9.2 0 Calma 11 Oeste 0 -- -- 89
2019-11-27 05:00:00 9.4 0 Calma 8 Oeste 0 -- -- 92
2019-11-27 04:00:00 9.3 3 Noroeste 6 Noroeste 0 -- -- 93
2019-11-27 03:00:00 9.4 5 Oeste 13 Oeste 0 -- -- 92
2019-11-27 02:00:00 10.3 6 Oeste 12 Oeste 0 -- -- 89
2019-11-27 01:00:00 9.8 0 Calma 11 Oeste 0 -- -- 89
2019-11-27 00:00:00 11.3 5 Oeste 9 Oeste 0 -- -- 89
2019-11-26 23:00:00 10.6 0 Calma 8 Oeste 0 -- -- 85
2019-11-26 22:00:00 12 6 Oeste 9 Oeste 0 -- -- 83
2019-11-26 21:00:00 12.1 0 Calma 3 Este 0 -- -- 77
2019-11-26 20:00:00 14.3 4 Sudeste 6 Sudeste 0 -- -- 70
2019-11-26 19:00:00 14.8 0 Calma -- -- 0 -- -- 64
2019-11-26 18:00:00 18.4 2 Este 8 Este 0 -- -- 55
2019-11-26 17:00:00 21.1 3 Sur 6 Sudoeste 0 -- -- 49
2019-11-26 16:00:00 20.7 5 Oeste 14 Oeste 0 -- -- 47
2019-11-26 15:00:00 20 8 Oeste 14 Oeste 0 -- -- 49
2019-11-26 14:00:00 19 9 Oeste 16 Oeste 0 -- -- 52
2019-11-26 13:00:00 17.2 10 Oeste 17 Oeste 0 -- -- 56
2019-11-26 12:00:00 15.6 9 Oeste 15 Noroeste 0 -- -- 61
2019-11-26 11:00:00 12.4 10 Oeste 15 Oeste 0 -- -- 74
2019-11-26 10:00:00 9.4 12 Oeste 16 Oeste 0 -- -- 85
2019-11-26 09:00:00 8.5 11 Oeste 15 Oeste 0 -- -- 88
2019-11-26 08:00:00 8.6 9 Oeste 18 Oeste 0 -- -- 88
2019-11-26 07:00:00 8.5 10 Oeste 14 Oeste 0 -- -- 89
2019-11-26 06:00:00 9.7 9 Oeste 13 Oeste 0 -- -- 86
2019-11-26 05:00:00 10.8 8 Oeste 10 Oeste 0 -- -- 81
2019-11-26 04:00:00 12.1 5 Oeste 6 Oeste 0 -- -- 73
2019-11-26 03:00:00 10.7 0 Calma 4 Noroeste 0 -- -- 78
2019-11-26 02:00:00 12.4 4 Sudoeste 10 Oeste 0 -- -- 72
2019-11-26 01:00:00 13.9 3 Oeste 16 Sudoeste 0 -- -- 67
2019-11-26 00:00:00 14.6 7 Oeste 13 Oeste 0 -- -- 65
2019-11-25 23:00:00 14.1 6 Oeste 14 Oeste 0 -- -- 67
2019-11-25 22:00:00 14.3 8 Sudoeste 21 Oeste 0 -- -- 65
2019-11-25 21:00:00 15.6 11 Noroeste 20 Noroeste 0 -- -- 61
2019-11-25 20:00:00 16 6 Noroeste 21 Oeste 0 -- -- 60
2019-11-25 19:00:00 17.2 10 Noroeste 28 Sudoeste 0 -- -- 55
2019-11-25 18:00:00 18.5 8 Noroeste 36 Oeste 0 -- -- 52
2019-11-25 17:00:00 19.4 18 Noroeste 38 Noroeste 0 -- -- 52
2019-11-25 16:00:00 19.2 13 Oeste 28 Noroeste 0 -- -- 52
2019-11-25 15:00:00 20 19 Oeste 35 Oeste 0 -- -- 51
2019-11-25 14:00:00 19.6 8 Oeste 14 Oeste 0 -- -- 52
2019-11-25 13:00:00 17.7 4 Oeste 8 Oeste 0 -- -- 55
2019-11-25 12:00:00 14.7 0 Calma 7 Oeste 0 -- -- 63
2019-11-25 11:00:00 10.5 6 Oeste 9 Oeste 0 -- -- 73
2019-11-25 10:00:00 10.3 5 Oeste 8 Oeste 0 -- -- 74
2019-11-25 09:00:00 9.9 7 Oeste 10 Oeste 0 -- -- 73
2019-11-25 08:00:00 10.6 0 Calma 12 Oeste 0 -- -- 68
2019-11-25 07:00:00 10.5 3 Oeste 13 Noroeste 0 -- -- 68
2019-11-25 06:00:00 11.5 9 Norte 18 Norte 0 -- -- 65
2019-11-25 05:00:00 10.6 5 Noroeste 23 Noroeste 0 -- -- 66
2019-11-25 04:00:00 11.9 10 Noroeste 28 Oeste 0 -- -- 62
2019-11-25 03:00:00 9.9 5 Noroeste 14 Norte 0 -- -- 67
2019-11-25 02:00:00 9.3 6 Norte 14 Norte 0 -- -- 65
2019-11-25 01:00:00 7.6 0 Calma 10 Noroeste 0 -- -- 66
2019-11-25 00:00:00 9.7 5 Noroeste 20 Oeste 0 -- -- 58
2019-11-24 23:00:00 10 10 Noroeste 24 Noroeste 0 -- -- 57
2019-11-24 22:00:00 9.4 2 Sudoeste 29 Oeste 0 -- -- 56
2019-11-24 21:00:00 9.9 13 Oeste 25 Noroeste 0 -- -- 53
2019-11-24 20:00:00 11.2 14 Oeste 28 Oeste 0 -- -- 49
2019-11-24 19:00:00 10.9 5 Noroeste 22 Oeste 0 -- -- 50
2019-11-24 18:00:00 12.6 13 Oeste 27 Oeste 0 -- -- 46
2019-11-24 17:00:00 14.1 17 Oeste 35 Oeste 0 -- -- 45
2019-11-24 16:00:00 14 22 Oeste 39 Oeste 0 -- -- 46
2019-11-24 15:00:00 13.7 18 Oeste 35 Oeste 0 -- -- 45
2019-11-24 14:00:00 13.6 20 Oeste 36 Oeste 0 -- -- 47
2019-11-24 13:00:00 12.4 14 Oeste 32 Noroeste 0 -- -- 51
2019-11-24 12:00:00 11.9 16 Noroeste 36 Oeste 0 -- -- 52
2019-11-24 11:00:00 11 10 Noroeste 31 Oeste 0 -- -- 56
2019-11-24 10:00:00 9.4 13 Oeste 28 Oeste 0 -- -- 61
2019-11-24 09:00:00 7.7 9 Oeste 18 Oeste 0 -- -- 66
2019-11-24 08:00:00 7.6 8 Oeste 14 Oeste 0 -- -- 66
2019-11-24 07:00:00 7.3 2 Oeste 16 Oeste 0 -- -- 63
2019-11-24 06:00:00 8.6 10 Oeste 23 Oeste 0 -- -- 58
2019-11-24 05:00:00 9.2 10 Oeste 21 Noroeste 0 -- -- 57
2019-11-24 04:00:00 9.6 11 Noroeste 26 Oeste 0 -- -- 55
2019-11-24 03:00:00 9.6 13 Noroeste 23 Oeste 0 -- -- 55
2019-11-24 02:00:00 10 14 Oeste 24 Noroeste 0 -- -- 54
2019-11-24 01:00:00 9.4 5 Noroeste 22 Oeste 0 -- -- 55
2019-11-24 00:00:00 10.1 9 Noroeste 29 Oeste 0 -- -- 54
2019-11-23 23:00:00 10.3 13 Oeste 19 Oeste 0 -- -- 52
2019-11-23 22:00:00 10.5 14 Oeste 25 Oeste 0 -- -- 50
2019-11-23 21:00:00 10.9 11 Oeste 26 Oeste 0 -- -- 46
2019-11-23 20:00:00 11.8 17 Oeste 28 Oeste 0 -- -- 42
2019-11-23 19:00:00 12 12 Oeste 31 Noroeste 0 -- -- 41
2019-11-23 18:00:00 14.1 16 Noroeste 46 Oeste 0 -- -- 35
2019-11-23 17:00:00 15.2 18 Noroeste 48 Noroeste 0 -- -- 34
2019-11-23 16:00:00 15.6 26 Oeste 51 Oeste 0 -- -- 34
2019-11-23 15:00:00 15.5 27 Oeste 51 Oeste 0 -- -- 35
2019-11-23 14:00:00 15.3 22 Noroeste 57 Oeste 0 -- -- 36
2019-11-23 13:00:00 14.6 21 Noroeste 58 Oeste 0 -- -- 37
2019-11-23 12:00:00 14.2 26 Noroeste 59 Oeste 0 -- -- 40
2019-11-23 11:00:00 13.3 22 Noroeste 55 Oeste 0 -- -- 45
2019-11-23 10:00:00 11.8 26 Noroeste 52 Noroeste 0 -- -- 50
2019-11-23 09:00:00 9.9 13 Noroeste 25 Oeste 0 -- -- 61
2019-11-23 08:00:00 9.6 13 Oeste 34 Oeste 0 -- -- 65
2019-11-23 07:00:00 10.9 18 Oeste 45 Oeste 0.1 -- -- 61
2019-11-23 06:00:00 9.7 20 Oeste 34 Oeste 0 -- -- 76
2019-11-23 05:00:00 7.7 0 Calma 25 Oeste 0 -- -- 84
2019-11-23 04:00:00 7.7 0 Calma 15 Oeste 0 -- -- 95
2019-11-23 03:00:00 8.1 0 Calma 9 Noroeste 0.1 -- -- 94
2019-11-23 02:00:00 9.4 7 Oeste 10 Noroeste 0 -- -- 95
2019-11-23 01:00:00 9.4 2 Oeste 8 Oeste 0 -- -- 94
2019-11-23 00:00:00 11.1 4 Sudeste 16 Sudeste 0.1 -- -- 93
2019-11-22 23:00:00 12.1 10 Sudeste 23 Sudeste 0 -- -- 93
2019-11-22 22:00:00 12 13 Sudeste 22 Este 0.9 -- -- 93
2019-11-22 21:00:00 12.1 5 Nordeste 28 Sudeste 3.2 -- -- 93
2019-11-22 20:00:00 11.9 16 Sudeste 29 Este 1.6 -- -- 91
2019-11-22 19:00:00 12 11 Sudeste 33 Sudeste 1.3 -- -- 92
2019-11-22 18:00:00 12.1 17 Sudeste 28 Sudeste 1.1 -- -- 90
2019-11-22 17:00:00 12.1 12 Sudeste 31 Sudeste 0.9 -- -- 90
2019-11-22 16:00:00 11.8 13 Sudeste 31 Sudeste 0.5 -- -- 88
2019-11-22 15:00:00 12.3 17 Sudeste 33 Este 0 -- -- 80
2019-11-22 14:00:00 12.1 15 Sudeste 26 Sudeste 0 -- -- 81
2019-11-22 13:00:00 10 15 Sudeste 23 Sudeste 0.2 -- -- 90
2019-11-22 12:00:00 8.2 0 Calma 7 Sur 0.3 -- -- 93
2019-11-22 11:00:00 7.8 0 Calma 5 Oeste 0 -- -- 94
2019-11-22 10:00:00 6.8 5 Oeste 9 Oeste 0 -- -- 95
2019-11-22 09:00:00 6.5 3 Oeste 10 Oeste 0 -- -- 95
2019-11-22 08:00:00 6.3 0 Calma 12 Oeste 0 -- -- 95
2019-11-22 07:00:00 5.9 3 Oeste 8 Oeste 0 -- -- 95
2019-11-22 06:00:00 6.6 0 Calma 15 Oeste 0 -- -- 95
2019-11-22 05:00:00 7.7 8 Oeste 11 Oeste 0 -- -- 95
2019-11-22 04:00:00 7.9 7 Oeste 11 Oeste 0 -- -- 95
2019-11-22 03:00:00 8.6 5 Oeste 10 Oeste 0 -- -- 94
2019-11-22 02:00:00 8.7 6 Oeste 9 Oeste 0 -- -- 93
2019-11-22 01:00:00 9.1 0 Calma 6 Oeste 0 -- -- 91
2019-11-22 00:00:00 9 0 Calma 3 Nordeste 0.1 -- -- 88
2019-11-21 23:00:00 9.9 0 Calma 6 Oeste 0.2 -- -- 87
2019-11-21 22:00:00 10.3 5 Oeste 9 Oeste 0 -- -- 83
2019-11-21 21:00:00 10.5 0 Calma 8 Sudeste 0 -- -- 77
2019-11-21 20:00:00 11.7 4 Este 13 Sudeste 0 -- -- 68
2019-11-21 19:00:00 12.1 8 Sudeste 12 Sudeste 0 -- -- 67
2019-11-21 18:00:00 12.8 3 Este 10 Sudeste 0 -- -- 65
2019-11-21 17:00:00 13.6 4 Sudeste 6 Sudeste 0 -- -- 62
2019-11-21 16:00:00 13.2 0 Calma 9 Noroeste 0 -- -- 67
2019-11-21 15:00:00 10.4 2 Oeste 9 Oeste 0 -- -- 79
2019-11-21 14:00:00 8.8 4 Oeste 9 Oeste 0 -- -- 82
2019-11-21 13:00:00 8.2 0 Calma 12 Oeste 0 -- -- 84
2019-11-21 12:00:00 7.4 5 Oeste 12 Oeste 0 -- -- 88
2019-11-21 11:00:00 6.4 0 Calma 10 Noroeste 0 -- -- 90
2019-11-21 10:00:00 5.5 7 Oeste 14 Oeste 0 -- -- 91
2019-11-21 09:00:00 4.9 12 Oeste 17 Oeste 0 -- -- 93
2019-11-21 08:00:00 4.5 8 Oeste 13 Oeste 0 -- -- 94
2019-11-21 07:00:00 4.7 6 Oeste 10 Oeste 0 -- -- 94
2019-11-21 06:00:00 5.2 0 Calma 13 Oeste 0 -- -- 91
2019-11-21 05:00:00 5.9 10 Oeste 14 Oeste 0 -- -- 93
2019-11-21 04:00:00 6 2 Noroeste 9 Oeste 0 -- -- 91
2019-11-21 03:00:00 6.8 6 Oeste 13 Oeste 0 -- -- 90
2019-11-21 02:00:00 7.1 2 Noroeste 8 Oeste 0 -- -- 89
2019-11-21 01:00:00 7.9 4 Oeste 8 Oeste 0 -- -- 83
2019-11-21 00:00:00 8.3 0 Calma 7 Oeste 0 -- -- 79
2019-11-20 23:00:00 9 0 Calma 6 Oeste 0 -- -- 81
2019-11-20 22:00:00 8.9 0 Calma 5 Sudeste 0 -- -- 85
2019-11-20 21:00:00 10.1 4 Sudeste 6 Sudeste 0 -- -- 81
2019-11-20 20:00:00 10.7 0 Calma 19 Sudeste 0.1 -- -- 70
2019-11-20 19:00:00 12.5 10 Sudeste 17 Sudeste 0 -- -- 58
2019-11-20 18:00:00 12.7 6 Sudeste 16 Sudeste 0 -- -- 56
2019-11-20 17:00:00 13.3 7 Sudeste 16 Este 0 -- -- 53
2019-11-20 16:00:00 14.5 6 Este 14 Sudeste 0 -- -- 46
2019-11-20 15:00:00 13.7 0 Calma 7 Este 0 -- -- 47
2019-11-20 14:00:00 11.9 5 Oeste 10 Oeste 0 -- -- 50
2019-11-20 13:00:00 10.7 6 Oeste 13 Oeste 0 -- -- 56
2019-11-20 12:00:00 8.1 11 Oeste 16 Oeste 0 -- -- 64
2019-11-20 11:00:00 6 11 Oeste 17 Oeste 0 -- -- 74
2019-11-20 10:00:00 2.6 11 Oeste 15 Oeste 0 -- -- 86
2019-11-20 09:00:00 1.6 10 Oeste 12 Oeste 0 -- -- 91
2019-11-20 08:00:00 1.9 7 Oeste 11 Oeste 0 -- -- 90
2019-11-20 07:00:00 2.1 11 Oeste 17 Oeste 0 -- -- 90
2019-11-20 06:00:00 2.7 6 Oeste 11 Oeste 0 -- -- 88
2019-11-20 05:00:00 3.8 8 Oeste 13 Oeste 0 -- -- 83
2019-11-20 04:00:00 4.3 9 Oeste 13 Oeste 0 -- -- 83
2019-11-20 03:00:00 4.1 6 Oeste 11 Oeste 0 -- -- 85
2019-11-20 02:00:00 4.6 5 Oeste 6 Oeste 0 -- -- 83
2019-11-20 01:00:00 5.4 0 Calma 7 Oeste 0 -- -- 78
2019-11-20 00:00:00 6.3 3 Oeste 9 Oeste 0 -- -- 73
2019-11-19 23:00:00 6.1 0 Calma 6 Oeste 0 -- -- 70
2019-11-19 22:00:00 7.9 5 Oeste 7 Oeste 0 -- -- 66
2019-11-19 21:00:00 7.9 0 Calma 7 Nordeste 0 -- -- 65
2019-11-19 20:00:00 9.8 5 Nordeste 9 Nordeste 0 -- -- 56
2019-11-19 19:00:00 8.5 0 Calma 5 Norte 0 -- -- 57
2019-11-19 18:00:00 11.3 0 Calma 13 Noroeste 0 -- -- 46
2019-11-19 17:00:00 14.4 4 Noroeste 19 Noroeste 0 -- -- 39
2019-11-19 16:00:00 15.1 4 Noroeste 19 Oeste 0 -- -- 39
2019-11-19 15:00:00 14 11 Oeste 19 Oeste 0 -- -- 41
2019-11-19 14:00:00 13.4 5 Noroeste 19 Norte 0 -- -- 42
2019-11-19 13:00:00 12.5 6 Noroeste 24 Noroeste 0 -- -- 45
2019-11-19 12:00:00 10.8 8 Noroeste 19 Noroeste 0 -- -- 50
2019-11-19 11:00:00 8.4 8 Oeste 14 Oeste 0 -- -- 57
2019-11-19 10:00:00 6.5 7 Oeste 15 Oeste 0 -- -- 61
2019-11-19 09:00:00 5.7 6 Noroeste 19 Norte 0 -- -- 63
2019-11-19 08:00:00 3.9 5 Oeste 8 Oeste 0 -- -- 68
2019-11-19 07:00:00 4 6 Noroeste 14 Oeste 0 -- -- 68
2019-11-19 06:00:00 5.5 6 Oeste 26 Oeste 0 -- -- 62
2019-11-19 05:00:00 6 5 Oeste 14 Oeste 0 -- -- 62
2019-11-19 04:00:00 4.8 0 Calma 10 Norte 0 -- -- 66
2019-11-19 03:00:00 7.4 4 Noroeste 15 Noroeste 0 -- -- 58
2019-11-19 02:00:00 5.6 0 Calma 13 Noroeste 0 -- -- 65
2019-11-19 01:00:00 7.2 8 Oeste 13 Oeste 0 -- -- 61
2019-11-19 00:00:00 5.6 3 Oeste 9 Oeste 0 -- -- 68
2019-11-18 23:00:00 5.9 0 Calma 8 Oeste 0 -- -- 65
2019-11-18 22:00:00 6.5 4 Oeste 8 Oeste 0 -- -- 61
2019-11-18 21:00:00 7 3 Oeste 7 Oeste 0 -- -- 58
2019-11-18 20:00:00 8.8 5 Oeste 17 Oeste 0 -- -- 50
2019-11-18 19:00:00 10 9 Oeste 27 Oeste 0 -- -- 46
2019-11-18 18:00:00 11.4 11 Noroeste 36 Noroeste 0 -- -- 42
2019-11-18 17:00:00 12.6 10 Noroeste 33 Noroeste 0 -- -- 41
2019-11-18 16:00:00 13.3 9 Noroeste 36 Noroeste 0 -- -- 42
2019-11-18 15:00:00 13 17 Norte 32 Norte 0 -- -- 44
2019-11-18 14:00:00 13.6 12 Noroeste 29 Norte 0 -- -- 45
2019-11-18 13:00:00 12 13 Norte 32 Norte 0 -- -- 48
2019-11-18 12:00:00 12 8 Noroeste 39 Oeste 0 -- -- 51
2019-11-18 11:00:00 10.4 15 Noroeste 39 Noroeste 0 -- -- 57
2019-11-18 10:00:00 9 12 Noroeste 34 Oeste 0 -- -- 66
2019-11-18 09:00:00 7.6 15 Noroeste 28 Oeste 0 -- -- 75
2019-11-18 08:00:00 7.9 8 Noroeste 20 Oeste 0 -- -- 81
2019-11-18 07:00:00 8.1 2 Noroeste 18 Oeste 0 -- -- 87
2019-11-18 06:00:00 8.4 6 Noroeste 24 Oeste 0 -- -- 87
2019-11-18 05:00:00 8.7 9 Oeste 18 Oeste 0.8 -- -- 93
2019-11-18 04:00:00 9.1 10 Oeste 16 Oeste 0.8 -- -- 95
2019-11-18 03:00:00 9.1 0 Calma 16 Norte 0.7 -- -- 94
2019-11-18 02:00:00 9.4 7 Norte 15 Noroeste 1.2 -- -- 93
2019-11-18 01:00:00 9.1 0 Calma 4 Oeste 0.7 -- -- 92
2019-11-18 00:00:00 9.7 0 Calma 6 Oeste 0.2 -- -- 85
2019-11-17 23:00:00 10.7 3 Oeste 5 Oeste 0 -- -- 73
2019-11-17 22:00:00 9.6 4 Sur 8 Sur 0 -- -- 71
2019-11-17 21:00:00 10.7 0 Calma 5 Noroeste 0 -- -- 67
2019-11-17 20:00:00 11.3 4 Sudoeste 10 Noroeste 0 -- -- 62
2019-11-17 19:00:00 12.4 2 Oeste 13 Norte 0 -- -- 57
2019-11-17 18:00:00 14.1 0 Calma 14 Noroeste 0 -- -- 53
2019-11-17 17:00:00 14.7 6 Noroeste 23 Noroeste 0 -- -- 50
2019-11-17 16:00:00 16.3 8 Oeste 23 Oeste 0 -- -- 46
2019-11-17 15:00:00 15 13 Noroeste 24 Oeste 0 -- -- 45
2019-11-17 14:00:00 14.5 14 Oeste 23 Oeste 0 -- -- 44
2019-11-17 13:00:00 13.6 10 Oeste 21 Oeste 0 -- -- 46
2019-11-17 12:00:00 11.7 10 Oeste 17 Oeste 0 -- -- 53
2019-11-17 11:00:00 8.5 0 Calma 4 Norte 0 -- -- 61
2019-11-17 10:00:00 4.7 0 Calma 5 Noroeste 0 -- -- 73
2019-11-17 09:00:00 2.8 3 Oeste 6 Oeste 0 -- -- 78
2019-11-17 08:00:00 1.9 4 Oeste 6 Oeste 0 -- -- 78
2019-11-17 07:00:00 2.9 0 Calma 8 Oeste 0 -- -- 73
2019-11-17 06:00:00 3.6 2 Noroeste 8 Oeste 0 -- -- 71
2019-11-17 05:00:00 4 2 Oeste 13 Noroeste 0 -- -- 68
2019-11-17 04:00:00 5.6 10 Oeste 18 Noroeste 0 -- -- 63
2019-11-17 03:00:00 5.7 11 Oeste 18 Noroeste 0 -- -- 63
2019-11-17 02:00:00 6.5 11 Oeste 20 Oeste 0 -- -- 62
2019-11-17 01:00:00 6.5 12 Oeste 21 Oeste 0 -- -- 63
2019-11-17 00:00:00 6.6 6 Oeste 10 Oeste 0 -- -- 61
2019-11-16 23:00:00 6.5 2 Noroeste 8 Noroeste 0 -- -- 61
2019-11-16 22:00:00 6.6 2 Noroeste 8 Noroeste 0 -- -- 58
2019-11-16 21:00:00 7.1 3 Oeste 18 Oeste 0 -- -- 53
2019-11-16 20:00:00 9.5 9 Oeste 20 Oeste 0 -- -- 46
2019-11-16 19:00:00 10.7 6 Noroeste 17 Norte 0 -- -- 44
2019-11-16 18:00:00 12.3 7 Noroeste 31 Norte 0 -- -- 37
2019-11-16 17:00:00 13.3 9 Noroeste 35 Norte 0 -- -- 37
2019-11-16 16:00:00 13.6 10 Noroeste 30 Noroeste 0 -- -- 37
2019-11-16 15:00:00 13.5 11 Noroeste 39 Oeste 0 -- -- 42
2019-11-16 14:00:00 13 10 Noroeste 33 Noroeste 0 -- -- 45
2019-11-16 13:00:00 12 9 Noroeste 34 Oeste 0 -- -- 47
2019-11-16 12:00:00 11 14 Noroeste 40 Oeste 0 -- -- 52
2019-11-16 11:00:00 9.5 9 Noroeste 27 Oeste 0 -- -- 60
2019-11-16 10:00:00 7.3 6 Noroeste 19 Noroeste 0 -- -- 67
2019-11-16 09:00:00 4.9 11 Oeste 22 Noroeste 0 -- -- 73
2019-11-16 08:00:00 3.9 10 Oeste 20 Oeste 0 -- -- 78
2019-11-16 07:00:00 2.8 3 Oeste 10 Oeste 0 -- -- 81
2019-11-16 06:00:00 2.2 0 Calma 6 Oeste 0 -- -- 83
2019-11-16 05:00:00 2.2 4 Oeste 9 Oeste 0 -- -- 82
2019-11-16 04:00:00 3.4 6 Oeste 11 Oeste 0 -- -- 79
2019-11-16 03:00:00 3.6 6 Oeste 8 Oeste 0 -- -- 78
2019-11-16 02:00:00 3.8 3 Oeste 8 Oeste 0 -- -- 76
2019-11-16 01:00:00 3.9 0 Calma 7 Noroeste 0 -- -- 76
2019-11-16 00:00:00 2.7 0 Calma 4 Noroeste 0 -- -- 78
2019-11-15 23:00:00 3.3 0 Calma 7 Noroeste 0 -- -- 72
2019-11-15 22:00:00 6.1 2 Noroeste 14 Noroeste 0 -- -- 65
2019-11-15 21:00:00 6.6 4 Noroeste 17 Oeste 0 -- -- 62
2019-11-15 20:00:00 7.4 8 Oeste 14 Noroeste 0 -- -- 60
2019-11-15 19:00:00 8.5 6 Oeste 21 Noroeste 0 -- -- 56
2019-11-15 18:00:00 10.4 16 Oeste 32 Norte 0 -- -- 50
2019-11-15 17:00:00 11.6 18 Oeste 32 Oeste 0 -- -- 46
2019-11-15 16:00:00 12.4 14 Noroeste 31 Noroeste 0 -- -- 45
2019-11-15 15:00:00 12.4 17 Oeste 31 Noroeste 0 -- -- 47
2019-11-15 14:00:00 12 14 Oeste 33 Noroeste 0 -- -- 51
2019-11-15 13:00:00 11.3 13 Oeste 28 Oeste 0 -- -- 53
2019-11-15 12:00:00 10.1 15 Oeste 27 Oeste 0 -- -- 57
2019-11-15 11:00:00 9.7 7 Noroeste 18 Oeste 0 -- -- 61
2019-11-15 10:00:00 7.5 0 Calma 13 Oeste 0 -- -- 71
2019-11-15 09:00:00 5.6 0 Calma 11 Oeste 0 -- -- 73
2019-11-15 08:00:00 6.4 7 Oeste 17 Noroeste 0 -- -- 68
2019-11-15 07:00:00 7.9 9 Oeste 22 Oeste 0 -- -- 65
2019-11-15 06:00:00 7.4 3 Oeste 23 Oeste 0 -- -- 66
2019-11-15 05:00:00 9 16 Oeste 27 Oeste 0 -- -- 61
2019-11-15 04:00:00 9.3 11 Oeste 24 Oeste 0 -- -- 60
2019-11-15 03:00:00 9.8 16 Oeste 42 Noroeste 0 -- -- 57
2019-11-15 02:00:00 9.6 16 Oeste 28 Oeste 0 -- -- 60
2019-11-15 01:00:00 10.1 17 Noroeste 45 Oeste 0 -- -- 57
2019-11-15 00:00:00 9.4 9 Noroeste 19 Noroeste 0 -- -- 56